sensor_id;sensor_type;location;lat;lon;timestamp;temperature;humidity
16846;DHT22;8539;53.188;8.696;2023-06-10T00:01:52;15.70;99.90
16846;DHT22;8539;53.188;8.696;2023-06-10T00:04:21;15.70;99.90
16846;DHT22;8539;53.188;8.696;2023-06-10T00:06:48;15.60;99.90
16846;DHT22;8539;53.188;8.696;2023-06-10T00:09:15;15.60;99.90
16846;DHT22;8539;53.188;8.696;2023-06-10T00:11:42;15.50;99.90
16846;DHT22;8539;53.188;8.696;2023-06-10T00:14:08;15.50;99.90
16846;DHT22;8539;53.188;8.696;2023-06-10T00:16:35;15.40;99.90
16846;DHT22;8539;53.188;8.696;2023-06-10T00:19:03;15.30;99.90
16846;DHT22;8539;53.188;8.696;2023-06-10T00:21:34;15.30;99.90
16846;DHT22;8539;53.188;8.696;2023-06-10T00:24:09;15.30;99.90
16846;DHT22;8539;53.188;8.696;2023-06-10T00:26:41;15.30;99.90
16846;DHT22;8539;53.188;8.696;2023-06-10T00:29:07;15.20;99.90
16846;DHT22;8539;53.188;8.696;2023-06-10T00:31:34;15.20;99.90
16846;DHT22;8539;53.188;8.696;2023-06-10T00:34:01;15.20;99.90
16846;DHT22;8539;53.188;8.696;2023-06-10T00:36:28;15.20;99.90
16846;DHT22;8539;53.188;8.696;2023-06-10T00:38:54;15.10;99.90
16846;DHT22;8539;53.188;8.696;2023-06-10T00:41:21;15.00;99.90
16846;DHT22;8539;53.188;8.696;2023-06-10T00:43:47;15.00;99.90
16846;DHT22;8539;53.188;8.696;2023-06-10T00:46:13;15.00;99.90
16846;DHT22;8539;53.188;8.696;2023-06-10T00:48:40;15.00;99.90
16846;DHT22;8539;53.188;8.696;2023-06-10T00:51:08;15.00;99.90
16846;DHT22;8539;53.188;8.696;2023-06-10T00:53:41;15.00;99.90
16846;DHT22;8539;53.188;8.696;2023-06-10T00:56:07;14.90;99.90
16846;DHT22;8539;53.188;8.696;2023-06-10T00:58:34;14.90;99.90
16846;DHT22;8539;53.188;8.696;2023-06-10T01:01:01;14.90;99.90
16846;DHT22;8539;53.188;8.696;2023-06-10T01:03:27;14.80;99.90
16846;DHT22;8539;53.188;8.696;2023-06-10T01:06:01;14.80;99.90
16846;DHT22;8539;53.188;8.696;2023-06-10T01:08:37;14.80;99.90
16846;DHT22;8539;53.188;8.696;2023-06-10T01:11:09;14.80;99.90
16846;DHT22;8539;53.188;8.696;2023-06-10T01:13:40;14.70;99.90
16846;DHT22;8539;53.188;8.696;2023-06-10T01:16:07;14.70;99.90
16846;DHT22;8539;53.188;8.696;2023-06-10T01:18:34;14.70;99.90
16846;DHT22;8539;53.188;8.696;2023-06-10T01:21:01;14.70;99.90
16846;DHT22;8539;53.188;8.696;2023-06-10T01:23:27;14.60;99.90
16846;DHT22;8539;53.188;8.696;2023-06-10T01:25:59;14.60;99.90
16846;DHT22;8539;53.188;8.696;2023-06-10T01:31:15;14.60;99.90
16846;DHT22;8539;53.188;8.696;2023-06-10T01:33:45;14.50;99.90
16846;DHT22;8539;53.188;8.696;2023-06-10T01:36:16;14.50;99.90
16846;DHT22;8539;53.188;8.696;2023-06-10T01:38:44;14.40;99.90
16846;DHT22;8539;53.188;8.696;2023-06-10T01:41:12;14.40;99.90
16846;DHT22;8539;53.188;8.696;2023-06-10T01:43:39;14.40;99.90
16846;DHT22;8539;53.188;8.696;2023-06-10T01:46:06;14.40;99.90
16846;DHT22;8539;53.188;8.696;2023-06-10T01:48:32;14.40;99.90
16846;DHT22;8539;53.188;8.696;2023-06-10T01:50:59;14.30;99.90
16846;DHT22;8539;53.188;8.696;2023-06-10T01:53:25;14.30;99.90
16846;DHT22;8539;53.188;8.696;2023-06-10T01:55:51;14.30;99.90
16846;DHT22;8539;53.188;8.696;2023-06-10T01:58:17;14.30;99.90
16846;DHT22;8539;53.188;8.696;2023-06-10T02:00:43;14.30;99.90
16846;DHT22;8539;53.188;8.696;2023-06-10T02:03:09;14.20;99.90
16846;DHT22;8539;53.188;8.696;2023-06-10T02:05:35;14.20;99.90
16846;DHT22;8539;53.188;8.696;2023-06-10T02:08:01;14.10;99.90
16846;DHT22;8539;53.188;8.696;2023-06-10T02:10:28;14.10;99.90
16846;DHT22;8539;53.188;8.696;2023-06-10T02:12:54;14.10;99.90
16846;DHT22;8539;53.188;8.696;2023-06-10T02:15:20;14.00;99.90
16846;DHT22;8539;53.188;8.696;2023-06-10T02:17:46;14.00;99.90
16846;DHT22;8539;53.188;8.696;2023-06-10T02:20:14;14.00;99.90
16846;DHT22;8539;53.188;8.696;2023-06-10T02:22:41;13.90;99.90
16846;DHT22;8539;53.188;8.696;2023-06-10T02:25:09;13.90;99.90
16846;DHT22;8539;53.188;8.696;2023-06-10T02:27:36;13.80;99.90
16846;DHT22;8539;53.188;8.696;2023-06-10T02:30:02;13.80;99.90
16846;DHT22;8539;53.188;8.696;2023-06-10T02:32:28;13.80;99.90
16846;DHT22;8539;53.188;8.696;2023-06-10T02:34:54;13.80;99.90
16846;DHT22;8539;53.188;8.696;2023-06-10T02:37:21;13.70;99.90
16846;DHT22;8539;53.188;8.696;2023-06-10T02:39:47;13.70;99.90
16846;DHT22;8539;53.188;8.696;2023-06-10T02:42:13;13.70;99.90
16846;DHT22;8539;53.188;8.696;2023-06-10T02:44:39;13.70;99.90
16846;DHT22;8539;53.188;8.696;2023-06-10T02:47:05;13.60;99.90
16846;DHT22;8539;53.188;8.696;2023-06-10T02:49:31;13.60;99.90
16846;DHT22;8539;53.188;8.696;2023-06-10T02:51:57;13.60;99.90
16846;DHT22;8539;53.188;8.696;2023-06-10T02:54:24;13.60;99.90
16846;DHT22;8539;53.188;8.696;2023-06-10T02:56:51;13.60;99.90
16846;DHT22;8539;53.188;8.696;2023-06-10T02:59:18;13.60;99.90
16846;DHT22;8539;53.188;8.696;2023-06-10T03:01:45;13.50;99.90
16846;DHT22;8539;53.188;8.696;2023-06-10T03:04:11;13.50;99.90
16846;DHT22;8539;53.188;8.696;2023-06-10T03:06:40;13.50;99.90
16846;DHT22;8539;53.188;8.696;2023-06-10T03:09:06;13.40;99.90
16846;DHT22;8539;53.188;8.696;2023-06-10T03:11:36;13.30;99.90
16846;DHT22;8539;53.188;8.696;2023-06-10T03:14:02;13.30;99.90
16846;DHT22;8539;53.188;8.696;2023-06-10T03:16:28;13.30;99.90
16846;DHT22;8539;53.188;8.696;2023-06-10T03:18:56;13.20;99.90
16846;DHT22;8539;53.188;8.696;2023-06-10T03:21:22;13.20;99.90
16846;DHT22;8539;53.188;8.696;2023-06-10T03:23:48;13.30;99.90
16846;DHT22;8539;53.188;8.696;2023-06-10T03:26:14;13.20;99.90
16846;DHT22;8539;53.188;8.696;2023-06-10T03:28:41;13.20;99.90
16846;DHT22;8539;53.188;8.696;2023-06-10T03:31:07;13.20;99.90
16846;DHT22;8539;53.188;8.696;2023-06-10T03:33:33;13.20;99.90
16846;DHT22;8539;53.188;8.696;2023-06-10T03:36:00;13.20;99.90
16846;DHT22;8539;53.188;8.696;2023-06-10T03:38:26;13.20;99.90
16846;DHT22;8539;53.188;8.696;2023-06-10T03:40:52;13.20;99.90
16846;DHT22;8539;53.188;8.696;2023-06-10T03:43:18;13.10;99.90
16846;DHT22;8539;53.188;8.696;2023-06-10T03:45:44;13.00;99.90
16846;DHT22;8539;53.188;8.696;2023-06-10T03:48:11;13.00;99.90
16846;DHT22;8539;53.188;8.696;2023-06-10T03:50:37;13.00;99.90
16846;DHT22;8539;53.188;8.696;2023-06-10T03:53:03;13.00;99.90
16846;DHT22;8539;53.188;8.696;2023-06-10T03:55:29;13.00;99.90
16846;DHT22;8539;53.188;8.696;2023-06-10T03:57:55;13.00;99.90
16846;DHT22;8539;53.188;8.696;2023-06-10T04:00:21;13.00;99.90
16846;DHT22;8539;53.188;8.696;2023-06-10T04:02:50;13.00;99.90
16846;DHT22;8539;53.188;8.696;2023-06-10T04:05:19;13.00;99.90
16846;DHT22;8539;53.188;8.696;2023-06-10T04:07:48;13.10;99.90
16846;DHT22;8539;53.188;8.696;2023-06-10T04:10:15;13.10;99.90
16846;DHT22;8539;53.188;8.696;2023-06-10T04:12:41;13.10;99.90
16846;DHT22;8539;53.188;8.696;2023-06-10T04:15:08;13.20;99.90
16846;DHT22;8539;53.188;8.696;2023-06-10T04:17:34;13.20;99.90
16846;DHT22;8539;53.188;8.696;2023-06-10T04:20:00;13.20;99.90
16846;DHT22;8539;53.188;8.696;2023-06-10T04:22:26;13.20;99.90
16846;DHT22;8539;53.188;8.696;2023-06-10T04:24:53;13.20;99.90
16846;DHT22;8539;53.188;8.696;2023-06-10T04:27:19;13.20;99.90
16846;DHT22;8539;53.188;8.696;2023-06-10T04:29:48;13.20;99.90
16846;DHT22;8539;53.188;8.696;2023-06-10T04:32:14;13.20;99.90
16846;DHT22;8539;53.188;8.696;2023-06-10T04:37:52;13.20;99.90
16846;DHT22;8539;53.188;8.696;2023-06-10T04:40:18;13.10;99.90
16846;DHT22;8539;53.188;8.696;2023-06-10T04:43:04;13.20;99.90
16846;DHT22;8539;53.188;8.696;2023-06-10T04:45:30;13.10;99.90
16846;DHT22;8539;53.188;8.696;2023-06-10T04:47:56;13.20;99.90
16846;DHT22;8539;53.188;8.696;2023-06-10T04:50:26;13.20;99.90
16846;DHT22;8539;53.188;8.696;2023-06-10T04:52:52;13.10;99.90
16846;DHT22;8539;53.188;8.696;2023-06-10T04:55:26;13.10;99.90
16846;DHT22;8539;53.188;8.696;2023-06-10T04:57:52;13.10;99.90
16846;DHT22;8539;53.188;8.696;2023-06-10T05:00:19;13.10;99.90
16846;DHT22;8539;53.188;8.696;2023-06-10T05:02:45;13.10;99.90
16846;DHT22;8539;53.188;8.696;2023-06-10T05:05:16;13.10;99.90
16846;DHT22;8539;53.188;8.696;2023-06-10T05:07:42;13.10;99.90
16846;DHT22;8539;53.188;8.696;2023-06-10T05:10:09;13.10;99.90
16846;DHT22;8539;53.188;8.696;2023-06-10T05:12:36;13.10;99.90
16846;DHT22;8539;53.188;8.696;2023-06-10T05:15:05;13.10;99.90
16846;DHT22;8539;53.188;8.696;2023-06-10T05:17:31;13.10;99.90
16846;DHT22;8539;53.188;8.696;2023-06-10T05:19:57;13.20;99.90
16846;DHT22;8539;53.188;8.696;2023-06-10T05:22:23;13.20;99.90
16846;DHT22;8539;53.188;8.696;2023-06-10T05:24:56;13.30;99.90
16846;DHT22;8539;53.188;8.696;2023-06-10T05:27:22;13.30;99.90
16846;DHT22;8539;53.188;8.696;2023-06-10T05:29:49;13.40;99.90
16846;DHT22;8539;53.188;8.696;2023-06-10T05:32:15;13.40;99.90
16846;DHT22;8539;53.188;8.696;2023-06-10T05:34:46;13.50;99.90
16846;DHT22;8539;53.188;8.696;2023-06-10T05:37:12;13.50;99.90
16846;DHT22;8539;53.188;8.696;2023-06-10T05:39:39;13.60;99.90
16846;DHT22;8539;53.188;8.696;2023-06-10T05:42:08;13.60;99.90
16846;DHT22;8539;53.188;8.696;2023-06-10T05:44:35;13.70;99.90
16846;DHT22;8539;53.188;8.696;2023-06-10T05:47:01;13.70;99.90
16846;DHT22;8539;53.188;8.696;2023-06-10T05:49:32;13.60;99.90
16846;DHT22;8539;53.188;8.696;2023-06-10T05:51:58;13.60;99.90
16846;DHT22;8539;53.188;8.696;2023-06-10T05:54:26;13.60;99.90
16846;DHT22;8539;53.188;8.696;2023-06-10T05:56:55;13.60;99.90
16846;DHT22;8539;53.188;8.696;2023-06-10T05:59:22;13.60;99.90
16846;DHT22;8539;53.188;8.696;2023-06-10T06:02:06;13.60;99.90
16846;DHT22;8539;53.188;8.696;2023-06-10T06:04:33;13.60;99.90
16846;DHT22;8539;53.188;8.696;2023-06-10T06:07:00;13.70;99.90
16846;DHT22;8539;53.188;8.696;2023-06-10T06:09:26;13.70;99.90
16846;DHT22;8539;53.188;8.696;2023-06-10T06:11:52;13.70;99.90
16846;DHT22;8539;53.188;8.696;2023-06-10T06:14:19;13.80;99.90
16846;DHT22;8539;53.188;8.696;2023-06-10T06:16:45;13.90;99.90
16846;DHT22;8539;53.188;8.696;2023-06-10T06:19:11;14.00;99.90
16846;DHT22;8539;53.188;8.696;2023-06-10T06:21:37;14.10;99.90
16846;DHT22;8539;53.188;8.696;2023-06-10T06:24:03;14.20;99.90
16846;DHT22;8539;53.188;8.696;2023-06-10T06:26:29;14.20;99.90
16846;DHT22;8539;53.188;8.696;2023-06-10T06:28:55;14.30;99.90
16846;DHT22;8539;53.188;8.696;2023-06-10T06:31:22;14.30;99.90
16846;DHT22;8539;53.188;8.696;2023-06-10T06:33:48;14.30;99.90
16846;DHT22;8539;53.188;8.696;2023-06-10T06:36:14;14.30;99.90
16846;DHT22;8539;53.188;8.696;2023-06-10T06:38:40;14.30;99.90
16846;DHT22;8539;53.188;8.696;2023-06-10T06:41:06;14.30;99.90
16846;DHT22;8539;53.188;8.696;2023-06-10T06:43:33;14.40;99.90
16846;DHT22;8539;53.188;8.696;2023-06-10T06:45:59;14.50;99.90
16846;DHT22;8539;53.188;8.696;2023-06-10T06:48:26;14.50;99.90
16846;DHT22;8539;53.188;8.696;2023-06-10T06:50:52;14.50;99.90
16846;DHT22;8539;53.188;8.696;2023-06-10T06:53:18;14.60;99.90
16846;DHT22;8539;53.188;8.696;2023-06-10T06:55:44;14.60;99.90
16846;DHT22;8539;53.188;8.696;2023-06-10T06:58:10;14.80;99.90
16846;DHT22;8539;53.188;8.696;2023-06-10T07:00:36;15.00;99.90
16846;DHT22;8539;53.188;8.696;2023-06-10T07:03:02;15.30;99.90
16846;DHT22;8539;53.188;8.696;2023-06-10T07:05:28;15.50;99.90
16846;DHT22;8539;53.188;8.696;2023-06-10T07:07:55;15.80;99.90
16846;DHT22;8539;53.188;8.696;2023-06-10T07:10:25;16.00;99.90
16846;DHT22;8539;53.188;8.696;2023-06-10T07:12:52;16.30;99.90
16846;DHT22;8539;53.188;8.696;2023-06-10T07:15:18;16.40;99.90
16846;DHT22;8539;53.188;8.696;2023-06-10T07:17:44;16.50;99.90
16846;DHT22;8539;53.188;8.696;2023-06-10T07:20:11;16.60;99.90
16846;DHT22;8539;53.188;8.696;2023-06-10T07:22:37;16.70;99.90
16846;DHT22;8539;53.188;8.696;2023-06-10T07:25:05;16.80;99.90
16846;DHT22;8539;53.188;8.696;2023-06-10T07:27:31;16.90;99.90
16846;DHT22;8539;53.188;8.696;2023-06-10T07:29:57;17.00;99.90
16846;DHT22;8539;53.188;8.696;2023-06-10T07:32:24;17.10;99.90
16846;DHT22;8539;53.188;8.696;2023-06-10T07:34:50;17.20;99.90
16846;DHT22;8539;53.188;8.696;2023-06-10T07:37:17;17.40;99.90
16846;DHT22;8539;53.188;8.696;2023-06-10T07:39:45;17.50;99.90
16846;DHT22;8539;53.188;8.696;2023-06-10T07:42:11;17.60;99.90
16846;DHT22;8539;53.188;8.696;2023-06-10T07:44:37;17.70;99.90
16846;DHT22;8539;53.188;8.696;2023-06-10T07:47:04;17.80;99.90
16846;DHT22;8539;53.188;8.696;2023-06-10T07:49:30;17.90;99.90
16846;DHT22;8539;53.188;8.696;2023-06-10T07:51:56;18.10;99.90
16846;DHT22;8539;53.188;8.696;2023-06-10T07:54:23;18.20;99.90
16846;DHT22;8539;53.188;8.696;2023-06-10T07:56:49;18.30;99.90
16846;DHT22;8539;53.188;8.696;2023-06-10T07:59:16;18.40;99.90
16846;DHT22;8539;53.188;8.696;2023-06-10T08:01:42;18.50;99.90
16846;DHT22;8539;53.188;8.696;2023-06-10T08:04:08;18.50;99.90
16846;DHT22;8539;53.188;8.696;2023-06-10T08:06:35;18.60;99.90
16846;DHT22;8539;53.188;8.696;2023-06-10T08:11:37;18.80;99.90
16846;DHT22;8539;53.188;8.696;2023-06-10T08:14:03;18.90;99.90
16846;DHT22;8539;53.188;8.696;2023-06-10T08:16:29;19.00;99.90
16846;DHT22;8539;53.188;8.696;2023-06-10T08:18:56;19.10;99.90
16846;DHT22;8539;53.188;8.696;2023-06-10T08:21:22;19.30;99.90
16846;DHT22;8539;53.188;8.696;2023-06-10T08:23:48;19.40;99.90
16846;DHT22;8539;53.188;8.696;2023-06-10T08:26:18;19.50;99.90
16846;DHT22;8539;53.188;8.696;2023-06-10T08:28:44;19.60;99.90
16846;DHT22;8539;53.188;8.696;2023-06-10T08:31:11;19.70;99.90
16846;DHT22;8539;53.188;8.696;2023-06-10T08:33:37;19.90;99.90
16846;DHT22;8539;53.188;8.696;2023-06-10T08:36:03;20.00;99.90
16846;DHT22;8539;53.188;8.696;2023-06-10T08:38:29;20.10;99.90
16846;DHT22;8539;53.188;8.696;2023-06-10T08:40:59;20.30;99.90
16846;DHT22;8539;53.188;8.696;2023-06-10T08:43:37;20.60;99.90
16846;DHT22;8539;53.188;8.696;2023-06-10T08:46:08;20.70;99.90
16846;DHT22;8539;53.188;8.696;2023-06-10T08:48:37;20.90;99.90
16846;DHT22;8539;53.188;8.696;2023-06-10T08:51:04;21.00;99.90
16846;DHT22;8539;53.188;8.696;2023-06-10T08:53:34;21.20;99.90
16846;DHT22;8539;53.188;8.696;2023-06-10T08:56:04;21.30;99.90
16846;DHT22;8539;53.188;8.696;2023-06-10T08:58:32;21.50;99.90
16846;DHT22;8539;53.188;8.696;2023-06-10T09:00:59;21.60;99.90
16846;DHT22;8539;53.188;8.696;2023-06-10T09:03:26;21.80;99.90
16846;DHT22;8539;53.188;8.696;2023-06-10T09:05:53;21.90;99.90
16846;DHT22;8539;53.188;8.696;2023-06-10T09:08:21;22.10;99.90
16846;DHT22;8539;53.188;8.696;2023-06-10T09:10:47;22.20;99.90
16846;DHT22;8539;53.188;8.696;2023-06-10T09:13:13;22.50;99.90
16846;DHT22;8539;53.188;8.696;2023-06-10T09:15:41;22.60;99.90
16846;DHT22;8539;53.188;8.696;2023-06-10T09:18:11;22.60;99.90
16846;DHT22;8539;53.188;8.696;2023-06-10T09:20:39;22.70;99.90
16846;DHT22;8539;53.188;8.696;2023-06-10T09:23:06;22.90;99.90
16846;DHT22;8539;53.188;8.696;2023-06-10T09:25:37;23.10;99.90
16846;DHT22;8539;53.188;8.696;2023-06-10T09:28:04;23.40;99.90
16846;DHT22;8539;53.188;8.696;2023-06-10T09:30:36;23.50;99.90
16846;DHT22;8539;53.188;8.696;2023-06-10T09:33:10;23.60;99.90
16846;DHT22;8539;53.188;8.696;2023-06-10T09:38:33;23.90;99.90
16846;DHT22;8539;53.188;8.696;2023-06-10T09:41:03;24.10;99.90
16846;DHT22;8539;53.188;8.696;2023-06-10T09:43:44;24.30;99.90
16846;DHT22;8539;53.188;8.696;2023-06-10T09:46:18;24.40;99.90
16846;DHT22;8539;53.188;8.696;2023-06-10T09:48:46;24.50;99.90
16846;DHT22;8539;53.188;8.696;2023-06-10T09:51:13;24.70;99.90
16846;DHT22;8539;53.188;8.696;2023-06-10T09:53:40;24.70;99.90
16846;DHT22;8539;53.188;8.696;2023-06-10T09:56:06;24.90;99.90
16846;DHT22;8539;53.188;8.696;2023-06-10T09:58:37;25.10;99.90
16846;DHT22;8539;53.188;8.696;2023-06-10T10:01:09;25.20;99.90
16846;DHT22;8539;53.188;8.696;2023-06-10T10:03:51;25.40;99.80
16846;DHT22;8539;53.188;8.696;2023-06-10T10:06:18;25.40;99.70
16846;DHT22;8539;53.188;8.696;2023-06-10T10:08:46;25.40;99.60
16846;DHT22;8539;53.188;8.696;2023-06-10T10:11:14;25.30;99.50
16846;DHT22;8539;53.188;8.696;2023-06-10T10:13:40;25.40;99.30
16846;DHT22;8539;53.188;8.696;2023-06-10T10:16:11;25.40;99.00
16846;DHT22;8539;53.188;8.696;2023-06-10T10:18:45;25.50;98.90
16846;DHT22;8539;53.188;8.696;2023-06-10T10:21:13;25.60;98.50
16846;DHT22;8539;53.188;8.696;2023-06-10T10:26:18;25.80;98.20
16846;DHT22;8539;53.188;8.696;2023-06-10T10:31:32;26.10;97.80
16846;DHT22;8539;53.188;8.696;2023-06-10T10:34:04;26.30;97.30
16846;DHT22;8539;53.188;8.696;2023-06-10T10:36:35;26.40;97.10
16846;DHT22;8539;53.188;8.696;2023-06-10T10:39:02;26.60;96.90
16846;DHT22;8539;53.188;8.696;2023-06-10T10:41:31;26.70;96.30
16846;DHT22;8539;53.188;8.696;2023-06-10T10:43:58;26.90;95.80
16846;DHT22;8539;53.188;8.696;2023-06-10T10:46:25;26.80;95.30
16846;DHT22;8539;53.188;8.696;2023-06-10T10:48:54;26.80;95.10
16846;DHT22;8539;53.188;8.696;2023-06-10T10:51:23;26.80;94.70
16846;DHT22;8539;53.188;8.696;2023-06-10T10:56:38;27.00;94.00
16846;DHT22;8539;53.188;8.696;2023-06-10T10:59:05;27.00;93.60
16846;DHT22;8539;53.188;8.696;2023-06-10T11:01:41;26.80;93.30
16846;DHT22;8539;53.188;8.696;2023-06-10T11:04:08;26.70;92.40
16846;DHT22;8539;53.188;8.696;2023-06-10T11:06:35;26.60;91.90
16846;DHT22;8539;53.188;8.696;2023-06-10T11:09:28;26.50;91.50
16846;DHT22;8539;53.188;8.696;2023-06-10T11:11:58;26.50;91.30
16846;DHT22;8539;53.188;8.696;2023-06-10T11:14:28;26.40;91.10
16846;DHT22;8539;53.188;8.696;2023-06-10T11:16:59;26.30;90.90
16846;DHT22;8539;53.188;8.696;2023-06-10T11:19:33;26.40;91.00
16846;DHT22;8539;53.188;8.696;2023-06-10T11:22:06;26.50;91.10
16846;DHT22;8539;53.188;8.696;2023-06-10T11:24:33;26.60;91.10
16846;DHT22;8539;53.188;8.696;2023-06-10T11:27:20;26.60;91.00
16846;DHT22;8539;53.188;8.696;2023-06-10T11:32:33;26.70;90.80
16846;DHT22;8539;53.188;8.696;2023-06-10T11:35:03;26.90;90.60
16846;DHT22;8539;53.188;8.696;2023-06-10T11:37:29;27.00;90.20
16846;DHT22;8539;53.188;8.696;2023-06-10T11:39:56;27.10;90.00
16846;DHT22;8539;53.188;8.696;2023-06-10T11:42:23;27.20;89.80
16846;DHT22;8539;53.188;8.696;2023-06-10T11:44:50;27.30;89.50
16846;DHT22;8539;53.188;8.696;2023-06-10T11:47:20;27.40;89.00
16846;DHT22;8539;53.188;8.696;2023-06-10T11:49:55;27.50;88.70
16846;DHT22;8539;53.188;8.696;2023-06-10T11:52:29;27.50;88.40
16846;DHT22;8539;53.188;8.696;2023-06-10T11:54:57;27.50;87.90
16846;DHT22;8539;53.188;8.696;2023-06-10T11:57:23;27.40;87.70
16846;DHT22;8539;53.188;8.696;2023-06-10T11:59:49;27.40;87.30
16846;DHT22;8539;53.188;8.696;2023-06-10T12:02:16;27.40;86.50
16846;DHT22;8539;53.188;8.696;2023-06-10T12:04:42;27.30;86.20
16846;DHT22;8539;53.188;8.696;2023-06-10T12:07:08;27.30;86.30
16846;DHT22;8539;53.188;8.696;2023-06-10T12:09:42;27.30;86.10
16846;DHT22;8539;53.188;8.696;2023-06-10T12:12:08;27.40;86.00
16846;DHT22;8539;53.188;8.696;2023-06-10T12:14:50;27.50;85.60
16846;DHT22;8539;53.188;8.696;2023-06-10T12:19:58;27.50;84.90
16846;DHT22;8539;53.188;8.696;2023-06-10T12:22:24;27.60;83.90
16846;DHT22;8539;53.188;8.696;2023-06-10T12:24:58;27.40;83.10
16846;DHT22;8539;53.188;8.696;2023-06-10T12:27:29;27.30;81.70
16846;DHT22;8539;53.188;8.696;2023-06-10T12:30:00;27.20;81.10
16846;DHT22;8539;53.188;8.696;2023-06-10T12:32:39;27.20;80.70
16846;DHT22;8539;53.188;8.696;2023-06-10T12:35:07;27.20;80.30
16846;DHT22;8539;53.188;8.696;2023-06-10T12:37:34;27.30;79.90
16846;DHT22;8539;53.188;8.696;2023-06-10T12:40:03;27.30;79.80
16846;DHT22;8539;53.188;8.696;2023-06-10T12:42:29;27.40;79.50
16846;DHT22;8539;53.188;8.696;2023-06-10T12:44:57;27.40;79.30
16846;DHT22;8539;53.188;8.696;2023-06-10T12:47:30;27.50;78.80
16846;DHT22;8539;53.188;8.696;2023-06-10T12:50:02;27.60;78.20
16846;DHT22;8539;53.188;8.696;2023-06-10T12:52:29;27.70;77.90
16846;DHT22;8539;53.188;8.696;2023-06-10T12:54:55;27.70;77.00
16846;DHT22;8539;53.188;8.696;2023-06-10T12:57:22;27.70;76.60
16846;DHT22;8539;53.188;8.696;2023-06-10T12:59:48;27.80;76.10
16846;DHT22;8539;53.188;8.696;2023-06-10T13:02:26;27.80;75.70
16846;DHT22;8539;53.188;8.696;2023-06-10T13:04:52;27.80;75.50
16846;DHT22;8539;53.188;8.696;2023-06-10T13:07:18;27.70;74.70
16846;DHT22;8539;53.188;8.696;2023-06-10T13:09:44;27.80;72.80
16846;DHT22;8539;53.188;8.696;2023-06-10T13:12:10;27.80;72.80
16846;DHT22;8539;53.188;8.696;2023-06-10T13:14:37;27.80;72.60
16846;DHT22;8539;53.188;8.696;2023-06-10T13:17:04;27.80;73.60
16846;DHT22;8539;53.188;8.696;2023-06-10T13:19:33;27.90;73.70
16846;DHT22;8539;53.188;8.696;2023-06-10T13:21:59;28.00;73.80
16846;DHT22;8539;53.188;8.696;2023-06-10T13:24:25;28.10;73.90
16846;DHT22;8539;53.188;8.696;2023-06-10T13:26:53;28.20;74.00
16846;DHT22;8539;53.188;8.696;2023-06-10T13:29:20;28.30;73.40
16846;DHT22;8539;53.188;8.696;2023-06-10T13:31:46;28.30;73.10
16846;DHT22;8539;53.188;8.696;2023-06-10T13:34:12;28.30;72.80
16846;DHT22;8539;53.188;8.696;2023-06-10T13:36:39;28.30;71.80
16846;DHT22;8539;53.188;8.696;2023-06-10T13:39:06;28.30;71.50
16846;DHT22;8539;53.188;8.696;2023-06-10T13:41:33;28.20;71.50
16846;DHT22;8539;53.188;8.696;2023-06-10T13:43:59;28.20;71.50
16846;DHT22;8539;53.188;8.696;2023-06-10T13:46:25;28.20;71.70
16846;DHT22;8539;53.188;8.696;2023-06-10T13:48:52;28.20;71.90
16846;DHT22;8539;53.188;8.696;2023-06-10T13:51:18;28.30;72.00
16846;DHT22;8539;53.188;8.696;2023-06-10T13:53:44;28.30;71.90
16846;DHT22;8539;53.188;8.696;2023-06-10T13:56:12;28.30;71.80
16846;DHT22;8539;53.188;8.696;2023-06-10T13:58:38;28.40;71.60
16846;DHT22;8539;53.188;8.696;2023-06-10T14:01:06;28.40;71.30
16846;DHT22;8539;53.188;8.696;2023-06-10T14:03:33;28.40;71.00
16846;DHT22;8539;53.188;8.696;2023-06-10T14:05:59;28.50;71.10
16846;DHT22;8539;53.188;8.696;2023-06-10T14:08:26;28.50;71.30
16846;DHT22;8539;53.188;8.696;2023-06-10T14:10:52;28.50;71.50
16846;DHT22;8539;53.188;8.696;2023-06-10T14:13:18;28.60;71.90
16846;DHT22;8539;53.188;8.696;2023-06-10T14:15:45;28.60;72.20
16846;DHT22;8539;53.188;8.696;2023-06-10T14:18:12;28.70;72.90
16846;DHT22;8539;53.188;8.696;2023-06-10T14:20:38;28.70;73.40
16846;DHT22;8539;53.188;8.696;2023-06-10T14:23:04;28.80;73.80
16846;DHT22;8539;53.188;8.696;2023-06-10T14:25:31;28.80;74.20
16846;DHT22;8539;53.188;8.696;2023-06-10T14:27:57;28.90;74.70
16846;DHT22;8539;53.188;8.696;2023-06-10T14:30:23;29.00;75.10
16846;DHT22;8539;53.188;8.696;2023-06-10T14:32:49;29.10;75.40
16846;DHT22;8539;53.188;8.696;2023-06-10T14:35:16;29.20;75.50
16846;DHT22;8539;53.188;8.696;2023-06-10T14:37:42;29.20;75.50
16846;DHT22;8539;53.188;8.696;2023-06-10T14:40:08;29.20;75.40
16846;DHT22;8539;53.188;8.696;2023-06-10T14:42:35;29.20;75.50
16846;DHT22;8539;53.188;8.696;2023-06-10T14:45:01;29.20;75.60
16846;DHT22;8539;53.188;8.696;2023-06-10T14:47:27;29.20;75.70
16846;DHT22;8539;53.188;8.696;2023-06-10T14:49:53;29.20;75.80
16846;DHT22;8539;53.188;8.696;2023-06-10T14:52:19;29.20;76.20
16846;DHT22;8539;53.188;8.696;2023-06-10T14:54:45;29.30;76.60
16846;DHT22;8539;53.188;8.696;2023-06-10T14:57:11;29.40;77.10
16846;DHT22;8539;53.188;8.696;2023-06-10T14:59:37;29.40;77.40
16846;DHT22;8539;53.188;8.696;2023-06-10T15:02:03;29.40;77.60
16846;DHT22;8539;53.188;8.696;2023-06-10T15:04:29;29.40;77.60
16846;DHT22;8539;53.188;8.696;2023-06-10T15:06:55;29.40;77.50
16846;DHT22;8539;53.188;8.696;2023-06-10T15:09:22;29.40;77.50
16846;DHT22;8539;53.188;8.696;2023-06-10T15:11:48;29.30;77.30
16846;DHT22;8539;53.188;8.696;2023-06-10T15:14:14;29.20;77.20
16846;DHT22;8539;53.188;8.696;2023-06-10T15:16:41;29.20;77.30
16846;DHT22;8539;53.188;8.696;2023-06-10T15:19:07;29.20;77.60
16846;DHT22;8539;53.188;8.696;2023-06-10T15:21:35;29.20;77.90
16846;DHT22;8539;53.188;8.696;2023-06-10T15:24:02;29.30;78.30
16846;DHT22;8539;53.188;8.696;2023-06-10T15:26:28;29.40;78.40
16846;DHT22;8539;53.188;8.696;2023-06-10T15:28:54;29.30;78.60
16846;DHT22;8539;53.188;8.696;2023-06-10T15:31:21;29.30;78.80
16846;DHT22;8539;53.188;8.696;2023-06-10T15:33:47;29.30;78.80
16846;DHT22;8539;53.188;8.696;2023-06-10T15:36:13;29.30;78.60
16846;DHT22;8539;53.188;8.696;2023-06-10T15:38:40;29.30;78.50
16846;DHT22;8539;53.188;8.696;2023-06-10T15:41:06;29.30;78.30
16846;DHT22;8539;53.188;8.696;2023-06-10T15:43:32;29.20;78.00
16846;DHT22;8539;53.188;8.696;2023-06-10T15:45:58;29.10;77.80
16846;DHT22;8539;53.188;8.696;2023-06-10T15:48:24;29.10;77.70
16846;DHT22;8539;53.188;8.696;2023-06-10T15:50:50;29.00;77.70
16846;DHT22;8539;53.188;8.696;2023-06-10T15:53:16;29.00;77.90
16846;DHT22;8539;53.188;8.696;2023-06-10T15:55:42;29.10;78.20
16846;DHT22;8539;53.188;8.696;2023-06-10T15:58:08;29.10;78.40
16846;DHT22;8539;53.188;8.696;2023-06-10T16:00:35;29.00;78.50
16846;DHT22;8539;53.188;8.696;2023-06-10T16:03:01;29.00;78.80
16846;DHT22;8539;53.188;8.696;2023-06-10T16:05:29;29.00;79.10
16846;DHT22;8539;53.188;8.696;2023-06-10T16:07:55;29.00;79.30
16846;DHT22;8539;53.188;8.696;2023-06-10T16:10:22;29.00;79.40
16846;DHT22;8539;53.188;8.696;2023-06-10T16:12:51;29.10;79.60